Time;durP1;ratioP1;P1;durP2;ratioP2;P2;SDS_P1;SDS_P2;PMS_P1;PMS_P2;Temp;Humidity;BMP_temperature;BMP_pressure;BME280_temperature;BME280_humidity;BME280_pressure;Samples;Min_cycle;Max_cycle;Signal;HPM_P1;HPM_P2
2023/03/06 00:00:28;;;;;;;2.38;0.60;;;19.40;54.50;;;;;;5030519;28;20120;-66
2023/03/06 00:02:54;;;;;;;1.48;0.55;;;19.50;54.50;;;;;;5031192;28;20041;-66
2023/03/06 00:05:20;;;;;;;2.25;0.52;;;19.40;54.40;;;;;;5031128;28;20086;-66
2023/03/06 00:07:45;;;;;;;2.10;0.75;;;19.40;54.40;;;;;;5029688;28;20080;-66
2023/03/06 00:10:16;;;;;;;4.32;0.55;;;19.40;54.50;;;;;;5034417;28;20187;-66
2023/03/06 00:12:41;;;;;;;1.85;0.60;;;19.40;54.40;;;;;;5033841;28;20049;-66
2023/03/06 00:15:08;;;;;;;2.38;0.55;;;19.40;54.40;;;;;;5035173;28;20040;-66
2023/03/06 00:17:33;;;;;;;1.42;0.52;;;19.30;54.30;;;;;;5034985;28;20057;-66
2023/03/06 00:19:59;;;;;;;2.70;0.70;;;19.30;54.30;;;;;;5034100;28;20045;-66
2023/03/06 00:22:24;;;;;;;2.38;0.68;;;19.30;54.30;;;;;;5035066;28;20038;-66
2023/03/06 00:24:52;;;;;;;1.77;0.57;;;19.30;54.30;;;;;;5034672;28;20049;-66
2023/03/06 00:27:18;;;;;;;2.28;0.55;;;19.30;54.20;;;;;;5034359;28;20056;-65
2023/03/06 00:29:43;;;;;;;2.40;0.52;;;19.30;54.20;;;;;;5034808;28;20045;-66
2023/03/06 00:32:09;;;;;;;2.13;0.52;;;19.30;54.20;;;;;;5034869;28;20041;-66
2023/03/06 00:34:34;;;;;;;1.15;0.60;;;19.30;54.20;;;;;;5033966;28;20045;-66
2023/03/06 00:37:00;;;;;;;2.47;1.02;;;19.30;54.20;;;;;;5033744;28;20033;-66
2023/03/06 00:39:26;;;;;;;1.30;1.00;;;19.20;54.10;;;;;;5034461;28;20047;-66
2023/03/06 00:41:51;;;;;;;2.05;0.50;;;19.30;54.20;;;;;;5033828;28;20487;-66
2023/03/06 00:44:17;;;;;;;1.92;0.60;;;19.20;54.10;;;;;;5033980;28;20073;-66
2023/03/06 00:46:42;;;;;;;1.55;0.55;;;19.20;54.10;;;;;;5034188;28;20064;-66
2023/03/06 00:49:08;;;;;;;0.90;0.50;;;19.20;54.10;;;;;;5035110;28;20448;-65
2023/03/06 00:51:33;;;;;;;1.35;0.50;;;19.20;54.00;;;;;;5039176;28;20061;-65
2023/03/06 00:53:59;;;;;;;4.10;0.60;;;19.20;54.00;;;;;;5033320;28;20049;-66
2023/03/06 00:56:25;;;;;;;1.50;0.50;;;19.20;54.00;;;;;;5033318;28;20052;-66
2023/03/06 00:58:50;;;;;;;2.58;0.50;;;19.20;54.00;;;;;;5034667;28;20381;-66
2023/03/06 01:01:16;;;;;;;1.10;0.50;;;19.20;54.00;;;;;;5034127;28;20102;-66
2023/03/06 01:03:41;;;;;;;1.35;0.65;;;19.20;54.00;;;;;;5033051;28;20124;-66
2023/03/06 01:06:07;;;;;;;1.70;0.75;;;19.10;53.90;;;;;;5034272;28;20049;-66
2023/03/06 01:08:32;;;;;;;1.38;0.40;;;19.10;53.90;;;;;;5033259;28;20044;-67
2023/03/06 01:10:58;;;;;;;1.33;0.50;;;19.20;54.00;;;;;;5033999;28;20060;-66
2023/03/06 01:13:23;;;;;;;1.33;0.52;;;19.10;53.90;;;;;;5033424;28;20042;-66
2023/03/06 01:15:49;;;;;;;1.33;0.50;;;19.10;53.80;;;;;;5033390;28;20033;-67
2023/03/06 01:18:15;;;;;;;0.95;0.50;;;19.10;53.80;;;;;;5034156;28;20068;-67
2023/03/06 01:20:40;;;;;;;1.88;0.47;;;19.10;53.80;;;;;;5033395;28;20048;-66
2023/03/06 01:23:06;;;;;;;1.23;0.40;;;19.10;53.80;;;;;;5033162;28;20124;-66
2023/03/06 01:25:32;;;;;;;2.20;0.40;;;19.10;53.80;;;;;;5033477;28;20116;-66
2023/03/06 01:27:57;;;;;;;1.25;0.50;;;19.10;53.80;;;;;;5034021;28;20083;-66
2023/03/06 01:30:23;;;;;;;2.33;0.95;;;19.10;53.80;;;;;;5032676;28;20128;-66
2023/03/06 01:32:48;;;;;;;1.50;0.50;;;19.00;53.70;;;;;;5032079;28;20139;-66
2023/03/06 01:35:14;;;;;;;3.00;0.90;;;19.00;53.60;;;;;;5033323;28;20038;-67
2023/03/06 01:37:40;;;;;;;1.70;0.70;;;19.00;53.60;;;;;;5031527;28;20041;-67
2023/03/06 01:40:07;;;;;;;2.15;0.47;;;19.00;53.60;;;;;;5033549;28;20049;-67
2023/03/06 01:42:33;;;;;;;1.25;0.60;;;19.00;53.60;;;;;;5040420;28;20061;-67
2023/03/06 01:45:04;;;;;;;1.83;0.68;;;19.00;53.60;;;;;;5032699;28;20056;-67
2023/03/06 01:47:30;;;;;;;2.88;0.55;;;19.00;53.60;;;;;;5033201;28;20556;-67
2023/03/06 01:49:56;;;;;;;1.63;0.63;;;19.00;53.60;;;;;;5033234;28;20116;-67
2023/03/06 01:52:24;;;;;;;1.75;0.57;;;19.00;53.80;;;;;;5032764;28;20121;-67
2023/03/06 01:54:55;;;;;;;2.65;0.60;;;19.00;53.50;;;;;;5033254;28;20471;-67
2023/03/06 01:57:32;;;;;;;1.27;0.52;;;19.00;53.50;;;;;;5031885;28;20056;-68
2023/03/06 02:00:07;;;;;;;2.43;0.63;;;19.00;53.40;;;;;;5014894;28;20048;-67
2023/03/06 02:02:33;;;;;;;1.77;0.47;;;19.00;53.50;;;;;;5014700;28;20053;-67
2023/03/06 02:04:58;;;;;;;1.52;0.73;;;19.00;53.50;;;;;;5032562;28;20041;-67
2023/03/06 02:07:24;;;;;;;1.33;0.40;;;18.90;53.40;;;;;;5031350;28;20106;-67
2023/03/06 02:09:49;;;;;;;0.93;0.45;;;19.00;53.50;;;;;;5033068;28;20088;-68
2023/03/06 02:12:17;;;;;;;2.15;0.45;;;19.00;53.50;;;;;;5032168;28;20061;-67
2023/03/06 02:14:43;;;;;;;1.83;0.60;;;19.00;53.50;;;;;;5015345;28;20056;-67
2023/03/06 02:17:09;;;;;;;1.25;0.50;;;19.00;53.50;;;;;;5031971;28;20308;-67
2023/03/06 02:20:01;;;;;;;1.58;0.50;;;18.90;53.40;;;;;;5014170;28;20045;-68
2023/03/06 02:22:56;;;;;;;2.40;0.50;;;18.90;53.40;;;;;;5023175;28;20056;-67
2023/03/06 02:25:47;;;;;;;1.92;0.50;;;18.90;53.40;;;;;;5031353;28;20488;-68
2023/03/06 02:28:15;;;;;;;1.13;0.47;;;19.00;53.40;;;;;;5030180;28;20057;-67
2023/03/06 02:30:41;;;;;;;3.33;0.85;;;19.00;53.40;;;;;;5032085;28;20084;-67
2023/03/06 02:33:10;;;;;;;1.58;0.50;;;18.90;53.40;;;;;;5018399;28;20037;-67
2023/03/06 02:35:36;;;;;;;1.90;0.50;;;19.00;53.40;;;;;;5031893;28;20485;-66
2023/03/06 02:38:07;;;;;;;0.68;0.38;;;19.00;53.30;;;;;;5031489;28;20063;-66
2023/03/06 02:40:33;;;;;;;2.55;0.55;;;18.90;53.20;;;;;;5030058;28;20072;-67
2023/03/06 02:42:58;;;;;;;0.85;0.45;;;18.90;53.30;;;;;;5032099;28;20501;-67
2023/03/06 02:45:44;;;;;;;1.23;0.70;;;19.00;53.40;;;;;;5030748;28;20049;-67
2023/03/06 02:48:11;;;;;;;1.40;0.50;;;19.00;53.40;;;;;;5031859;28;20056;-67
2023/03/06 02:50:37;;;;;;;0.98;0.50;;;19.00;53.40;;;;;;5031918;28;20034;-67
2023/03/06 02:53:03;;;;;;;1.85;0.52;;;19.00;53.30;;;;;;5032325;28;20550;-67
2023/03/06 02:55:28;;;;;;;1.35;0.50;;;19.00;53.20;;;;;;5030910;28;20033;-67
2023/03/06 02:57:54;;;;;;;1.55;0.50;;;19.00;53.30;;;;;;5032033;28;20050;-67
2023/03/06 03:00:19;;;;;;;1.17;0.40;;;19.00;53.70;;;;;;5030955;28;20049;-67
2023/03/06 03:02:45;;;;;;;1.27;0.50;;;19.00;53.20;;;;;;5029944;28;20052;-67
2023/03/06 03:05:11;;;;;;;1.48;0.57;;;19.00;53.20;;;;;;5014050;28;20033;-67
2023/03/06 03:07:36;;;;;;;0.95;0.50;;;19.00;53.20;;;;;;5031842;28;20061;-67
2023/03/06 03:10:02;;;;;;;1.20;0.40;;;19.00;53.20;;;;;;5031244;28;20487;-67
2023/03/06 03:12:28;;;;;;;1.33;0.40;;;19.00;53.10;;;;;;5034133;28;20040;-67
2023/03/06 03:14:54;;;;;;;1.48;0.50;;;19.00;53.10;;;;;;5042767;28;20430;-67
2023/03/06 03:17:21;;;;;;;1.77;0.50;;;19.00;53.10;;;;;;5031447;28;20132;-67
2023/03/06 03:19:46;;;;;;;0.93;0.50;;;19.00;53.10;;;;;;5031719;28;20049;-66
2023/03/06 03:22:12;;;;;;;2.10;0.60;;;19.10;53.10;;;;;;5031177;28;20045;-66
2023/03/06 03:24:38;;;;;;;1.00;0.45;;;19.10;53.10;;;;;;5031748;28;20033;-66
2023/03/06 03:27:04;;;;;;;1.95;0.40;;;19.10;53.10;;;;;;5032003;28;20041;-67
2023/03/06 03:29:30;;;;;;;1.10;0.40;;;19.10;53.00;;;;;;5030803;28;20041;-66
2023/03/06 03:31:56;;;;;;;1.20;0.50;;;19.10;53.00;;;;;;5031831;28;20057;-66
2023/03/06 03:34:21;;;;;;;0.88;0.50;;;19.10;53.00;;;;;;5030659;28;20044;-66
2023/03/06 03:36:47;;;;;;;1.58;0.50;;;19.10;53.00;;;;;;5030530;28;20045;-66
2023/03/06 03:39:12;;;;;;;0.77;0.30;;;19.10;53.00;;;;;;5030384;28;20034;-66
2023/03/06 03:41:38;;;;;;;1.45;0.70;;;19.10;53.00;;;;;;5031078;28;20215;-66
2023/03/06 03:44:03;;;;;;;1.02;0.40;;;19.10;53.00;;;;;;5032479;28;20631;-66
2023/03/06 03:46:29;;;;;;;1.83;0.50;;;19.20;53.00;;;;;;5035544;28;20048;-67
2023/03/06 03:48:55;;;;;;;1.40;0.50;;;19.10;52.90;;;;;;5036038;28;20397;-67
2023/03/06 03:51:20;;;;;;;1.63;0.60;;;19.10;53.00;;;;;;5035011;28;20045;-67
2023/03/06 03:53:46;;;;;;;2.05;0.50;;;19.20;53.00;;;;;;5034108;28;20049;-67
2023/03/06 03:56:12;;;;;;;0.47;0.38;;;19.20;53.00;;;;;;5034977;28;20512;-67
2023/03/06 03:58:37;;;;;;;1.38;0.50;;;19.20;53.00;;;;;;5034533;28;20045;-67
2023/03/06 04:01:03;;;;;;;0.47;0.30;;;19.20;53.00;;;;;;5035572;28;20045;-67
2023/03/06 04:03:29;;;;;;;1.45;0.40;;;19.20;53.00;;;;;;5026790;28;20037;-66
2023/03/06 04:05:56;;;;;;;1.85;0.52;;;19.20;53.00;;;;;;5033443;28;20049;-66
2023/03/06 04:08:23;;;;;;;2.07;0.43;;;19.30;53.00;;;;;;5033870;28;20045;-66
2023/03/06 04:10:50;;;;;;;0.88;0.38;;;19.20;53.00;;;;;;5034903;28;20037;-67
2023/03/06 04:13:16;;;;;;;1.77;0.50;;;19.20;53.00;;;;;;5034876;28;20112;-66
2023/03/06 04:15:42;;;;;;;1.83;0.50;;;19.20;53.00;;;;;;5035066;28;20060;-67
2023/03/06 04:18:07;;;;;;;0.90;0.40;;;19.30;53.00;;;;;;5035387;28;20041;-66
2023/03/06 04:20:33;;;;;;;1.00;0.40;;;19.30;53.00;;;;;;5034074;28;20053;-67
2023/03/06 04:22:59;;;;;;;0.47;0.30;;;19.30;53.00;;;;;;5035047;28;20402;-67
2023/03/06 04:25:25;;;;;;;0.60;0.30;;;19.30;53.00;;;;;;5033194;28;20505;-67
2023/03/06 04:27:50;;;;;;;0.38;0.20;;;19.30;53.00;;;;;;5034400;28;20381;-66
2023/03/06 04:30:16;;;;;;;0.85;0.40;;;19.30;53.00;;;;;;5035231;28;20099;-67
2023/03/06 04:32:41;;;;;;;0.93;0.43;;;19.30;52.90;;;;;;5033643;28;20037;-66
2023/03/06 04:35:07;;;;;;;1.45;0.30;;;19.40;52.90;;;;;;5034677;28;20034;-67
2023/03/06 04:37:33;;;;;;;0.75;0.40;;;19.40;53.00;;;;;;5034584;28;20049;-66
2023/03/06 04:39:58;;;;;;;1.00;0.40;;;19.40;52.90;;;;;;5033945;28;20042;-67
2023/03/06 04:42:24;;;;;;;1.00;0.40;;;19.40;52.90;;;;;;5033762;28;20456;-67
2023/03/06 04:44:49;;;;;;;0.40;0.30;;;19.40;52.90;;;;;;5034906;28;20477;-67
2023/03/06 04:47:15;;;;;;;1.40;0.40;;;19.40;52.80;;;;;;5032811;28;20103;-67
2023/03/06 04:49:40;;;;;;;0.60;0.22;;;19.40;52.80;;;;;;5034322;28;20493;-67
2023/03/06 04:52:06;;;;;;;1.85;0.50;;;19.40;52.90;;;;;;5032461;28;20038;-67
2023/03/06 04:54:32;;;;;;;0.73;0.30;;;19.50;52.90;;;;;;5032190;28;20083;-67
2023/03/06 04:56:57;;;;;;;1.40;0.40;;;19.50;52.90;;;;;;5034198;28;20045;-67
2023/03/06 04:59:23;;;;;;;0.70;0.30;;;19.50;52.80;;;;;;5034223;28;20527;-67
2023/03/06 05:01:49;;;;;;;0.98;0.30;;;19.50;52.80;;;;;;5030463;28;20112;-67
2023/03/06 05:04:14;;;;;;;1.65;0.30;;;19.50;52.80;;;;;;5019916;28;20069;-66
2023/03/06 05:06:40;;;;;;;0.90;0.30;;;19.50;52.80;;;;;;5031457;28;20042;-66
2023/03/06 05:09:05;;;;;;;1.08;0.30;;;19.50;52.80;;;;;;5033061;28;20049;-67
2023/03/06 05:11:31;;;;;;;0.60;0.30;;;19.50;52.80;;;;;;5028023;28;20053;-67
2023/03/06 05:13:56;;;;;;;0.68;0.28;;;19.50;52.80;;;;;;5034199;28;20478;-67
2023/03/06 05:16:22;;;;;;;0.80;0.30;;;19.60;52.80;;;;;;5033585;28;20188;-66
2023/03/06 05:18:47;;;;;;;0.70;0.20;;;19.60;52.80;;;;;;5033747;28;20052;-66
2023/03/06 05:21:13;;;;;;;0.50;0.30;;;19.60;52.80;;;;;;5033800;28;20041;-67
2023/03/06 05:23:38;;;;;;;0.80;0.40;;;19.60;52.70;;;;;;5032417;28;20041;-66
2023/03/06 05:26:07;;;;;;;1.75;0.40;;;19.60;52.70;;;;;;5034003;28;20080;-66
2023/03/06 05:28:32;;;;;;;;;;;19.60;52.70;;;;;;5034281;28;20056;-66
2023/03/06 05:30:58;;;;;;;0.40;0.30;;;19.60;52.70;;;;;;5031238;28;19917;-66
2023/03/06 05:33:25;;;;;;;0.80;0.30;;;19.70;53.50;;;;;;5034847;28;20045;-66
2023/03/06 05:35:50;;;;;;;0.73;0.30;;;19.70;52.70;;;;;;5043256;28;20049;-67
2023/03/06 05:38:16;;;;;;;0.98;0.35;;;19.70;52.70;;;;;;5032132;28;20408;-66
2023/03/06 05:40:42;;;;;;;0.30;0.20;;;19.70;52.70;;;;;;5031855;28;20092;-67
2023/03/06 05:43:09;;;;;;;0.50;0.30;;;19.70;52.70;;;;;;5032500;28;20057;-67
2023/03/06 05:45:34;;;;;;;0.70;0.30;;;19.70;52.70;;;;;;5031827;28;20053;-66
2023/03/06 05:48:00;;;;;;;0.55;0.20;;;19.70;52.70;;;;;;5033736;28;20049;-67
2023/03/06 05:50:26;;;;;;;0.85;0.30;;;19.70;52.60;;;;;;5032357;28;20068;-67
2023/03/06 05:52:51;;;;;;;1.08;0.20;;;19.70;52.60;;;;;;5031446;28;20046;-67
2023/03/06 05:55:19;;;;;;;0.73;0.35;;;19.80;52.60;;;;;;5033588;28;20042;-66
2023/03/06 05:57:45;;;;;;;0.55;0.20;;;19.70;52.50;;;;;;5030829;28;20045;-66
2023/03/06 06:00:12;;;;;;;0.50;0.20;;;19.70;52.50;;;;;;5032335;28;20111;-66
2023/03/06 06:02:37;;;;;;;0.40;0.20;;;19.70;52.50;;;;;;5033276;28;20045;-66
2023/03/06 06:05:03;;;;;;;0.75;0.20;;;19.80;52.60;;;;;;5031993;28;20037;-67
2023/03/06 06:07:28;;;;;;;0.50;0.20;;;19.70;52.50;;;;;;5030339;28;20038;-67
2023/03/06 06:09:54;;;;;;;0.20;0.20;;;19.80;52.50;;;;;;5031473;28;20053;-67
2023/03/06 06:12:20;;;;;;;0.30;0.20;;;19.80;52.50;;;;;;5033783;28;20040;-67
2023/03/06 06:14:45;;;;;;;0.55;0.20;;;19.80;52.50;;;;;;5032861;28;20042;-67
2023/03/06 06:17:11;;;;;;;0.55;0.20;;;19.80;52.50;;;;;;5032251;28;20040;-66
2023/03/06 06:19:37;;;;;;;0.22;0.20;;;19.80;52.50;;;;;;5031946;28;20045;-67
2023/03/06 06:22:03;;;;;;;0.98;0.30;;;19.90;52.50;;;;;;5033023;28;20037;-66
2023/03/06 06:24:28;;;;;;;0.30;0.10;;;19.80;52.50;;;;;;5032704;28;20056;-67
2023/03/06 06:26:55;;;;;;;0.17;0.15;;;19.90;52.50;;;;;;5031858;28;20038;-66
2023/03/06 06:29:20;;;;;;;0.30;0.20;;;19.80;52.40;;;;;;5048884;28;20389;-67
2023/03/06 06:31:46;;;;;;;0.20;0.20;;;19.90;52.40;;;;;;5030967;28;20049;-67
2023/03/06 06:34:12;;;;;;;0.20;0.20;;;19.90;52.50;;;;;;5030618;28;20037;-66
2023/03/06 06:36:38;;;;;;;0.50;0.10;;;19.90;52.40;;;;;;5032046;28;20099;-66
2023/03/06 06:39:04;;;;;;;0.22;0.20;;;19.90;52.40;;;;;;5031446;28;20080;-66
2023/03/06 06:41:29;;;;;;;0.20;0.20;;;19.90;52.40;;;;;;5031473;28;20029;-67
2023/03/06 06:43:55;;;;;;;0.10;0.10;;;19.90;52.30;;;;;;5032697;28;20059;-66
2023/03/06 06:46:21;;;;;;;0.30;0.10;;;19.90;52.40;;;;;;5031552;28;20046;-67
2023/03/06 06:48:48;;;;;;;0.45;0.17;;;19.90;52.40;;;;;;5045456;28;20132;-67
2023/03/06 06:51:14;;;;;;;0.10;0.10;;;19.90;52.30;;;;;;5034858;28;20511;-67
2023/03/06 06:53:40;;;;;;;0.30;0.10;;;19.90;52.30;;;;;;5031548;28;20037;-66
2023/03/06 06:56:05;;;;;;;0.50;0.20;;;19.90;52.40;;;;;;5030749;28;20048;-66
2023/03/06 06:58:31;;;;;;;0.30;0.30;;;19.90;52.40;;;;;;5041105;28;20076;-66
2023/03/06 07:00:56;;;;;;;0.57;0.20;;;20.00;52.40;;;;;;5037238;28;20045;-66
2023/03/06 07:03:22;;;;;;;0.60;0.20;;;20.00;52.30;;;;;;5031858;28;20037;-66
2023/03/06 07:05:54;;;;;;;0.45;0.20;;;20.00;52.30;;;;;;5031841;28;20477;-66
2023/03/06 07:08:20;;;;;;;0.70;0.30;;;20.00;52.30;;;;;;5038564;28;20524;-66
2023/03/06 07:10:46;;;;;;;1.10;0.30;;;20.00;52.30;;;;;;5039366;28;20042;-66
2023/03/06 07:13:11;;;;;;;0.20;0.20;;;20.00;52.30;;;;;;5032150;28;20041;-67
2023/03/06 07:15:37;;;;;;;0.25;0.10;;;20.00;52.30;;;;;;5030726;28;20140;-66
2023/03/06 07:18:03;;;;;;;0.20;0.10;;;20.00;52.20;;;;;;5031538;28;20044;-70
2023/03/06 07:20:28;;;;;;;1.25;0.25;;;20.00;52.20;;;;;;5030139;28;20052;-69
2023/03/06 07:22:54;;;;;;;4.30;0.30;;;20.00;52.20;;;;;;5030558;28;20088;-69
2023/03/06 07:25:20;;;;;;;1.30;0.20;;;20.10;52.30;;;;;;5031848;28;20489;-70
2023/03/06 07:27:45;;;;;;;0.98;0.38;;;20.10;52.40;;;;;;5031963;28;20056;-70
2023/03/06 07:30:12;;;;;;;0.98;0.20;;;20.10;52.40;;;;;;5037991;28;20140;-70
2023/03/06 07:32:37;;;;;;;0.63;0.20;;;20.10;52.40;;;;;;5050073;28;20041;-70
2023/03/06 07:35:03;;;;;;;1.85;0.20;;;20.10;52.30;;;;;;5052073;28;20503;-70
2023/03/06 07:37:29;;;;;;;1.63;0.20;;;20.10;52.40;;;;;;5051450;28;20044;-70
2023/03/06 07:39:54;;;;;;;0.35;0.20;;;20.10;53.10;;;;;;5052543;28;20045;-70
2023/03/06 07:42:20;;;;;;;1.30;0.20;;;20.10;52.40;;;;;;5052088;28;20062;-70
2023/03/06 07:44:45;;;;;;;3.95;0.25;;;20.10;52.40;;;;;;5050084;28;20048;-71
2023/03/06 07:47:12;;;;;;;1.55;0.25;;;20.10;52.50;;;;;;5041304;28;20042;-71
2023/03/06 07:49:37;;;;;;;3.72;0.40;;;20.10;52.50;;;;;;5030750;28;20520;-73
2023/03/06 07:52:03;;;;;;;2.45;0.30;;;20.10;52.60;;;;;;5032364;28;20038;-72
2023/03/06 07:54:33;;;;;;;1.65;0.20;;;20.10;52.90;;;;;;5031787;28;20051;-70
2023/03/06 07:56:59;;;;;;;1.33;0.20;;;20.10;53.00;;;;;;5031182;28;20049;-70
2023/03/06 07:59:25;;;;;;;1.95;0.30;;;20.10;53.20;;;;;;5030560;28;20111;-71
2023/03/06 08:01:52;;;;;;;2.55;0.40;;;20.10;53.20;;;;;;5032234;28;20124;-73
2023/03/06 08:04:18;;;;;;;0.50;0.20;;;20.10;53.30;;;;;;5027396;28;20064;-71
2023/03/06 08:06:43;;;;;;;1.02;0.20;;;20.20;53.40;;;;;;5040568;28;20404;-75
2023/03/06 08:09:09;;;;;;;2.17;0.28;;;20.20;53.60;;;;;;5047866;28;20084;-67
2023/03/06 08:11:34;;;;;;;3.70;0.25;;;20.20;53.60;;;;;;5030698;28;20450;-68
2023/03/06 08:14:00;;;;;;;0.77;0.20;;;20.20;53.60;;;;;;5030293;28;20041;-68
2023/03/06 08:16:27;;;;;;;0.95;0.13;;;20.20;53.60;;;;;;5031320;28;20100;-68
2023/03/06 08:18:53;;;;;;;1.65;0.20;;;20.30;53.70;;;;;;5030455;28;20493;-67
2023/03/06 08:21:20;;;;;;;1.35;0.22;;;20.20;53.60;;;;;;5031641;28;20042;-71
2023/03/06 08:23:46;;;;;;;3.05;0.35;;;20.30;53.50;;;;;;5031265;28;20037;-69
2023/03/06 08:26:14;;;;;;;2.08;0.30;;;20.20;53.40;;;;;;5030686;28;20465;-70
2023/03/06 08:28:40;;;;;;;1.00;0.20;;;20.20;53.40;;;;;;5031769;28;20057;-69
2023/03/06 08:31:15;;;;;;;0.95;0.30;;;20.20;53.40;;;;;;5034704;28;20038;-68
2023/03/06 08:33:41;;;;;;;1.20;0.22;;;20.20;53.60;;;;;;5034185;28;20424;-66
2023/03/06 08:36:07;;;;;;;2.80;0.30;;;20.20;53.60;;;;;;5035141;28;20037;-62
2023/03/06 08:38:32;;;;;;;4.28;0.52;;;20.30;53.70;;;;;;5034336;28;20046;-67
2023/03/06 08:40:58;;;;;;;2.25;0.50;;;20.30;53.70;;;;;;5032916;28;20060;-66
2023/03/06 08:43:24;;;;;;;1.48;0.50;;;20.30;53.70;;;;;;5034541;28;20061;-67
2023/03/06 08:45:53;;;;;;;1.02;0.30;;;20.30;54.40;;;;;;5034150;28;20050;-66
2023/03/06 08:48:19;;;;;;;4.57;0.40;;;20.40;53.70;;;;;;5034674;28;20370;-66
2023/03/06 08:50:44;;;;;;;2.42;0.30;;;20.30;53.70;;;;;;5034638;28;20049;-66
2023/03/06 08:53:10;;;;;;;3.13;0.30;;;20.40;53.70;;;;;;5034212;28;20072;-67
2023/03/06 08:55:36;;;;;;;1.10;0.30;;;20.40;53.70;;;;;;5034050;28;20042;-67
2023/03/06 08:58:03;;;;;;;1.55;0.30;;;20.40;53.70;;;;;;5034884;28;20469;-67
2023/03/06 09:00:29;;;;;;;1.90;0.30;;;20.40;53.70;;;;;;5033626;28;20088;-67
2023/03/06 09:02:54;;;;;;;1.23;0.40;;;20.40;53.70;;;;;;5034270;28;20053;-67
2023/03/06 09:05:20;;;;;;;1.85;0.30;;;20.40;53.70;;;;;;5034974;28;20033;-67
2023/03/06 09:07:46;;;;;;;0.20;0.13;;;20.40;53.70;;;;;;5033606;28;20424;-68
2023/03/06 09:10:15;;;;;;;0.70;0.20;;;20.40;53.70;;;;;;5036778;28;20036;-69
2023/03/06 09:12:40;;;;;;;3.38;0.30;;;20.50;53.80;;;;;;5047399;28;20061;-69
2023/03/06 09:15:07;;;;;;;1.05;0.20;;;20.50;53.70;;;;;;5033487;28;20041;-67
2023/03/06 09:17:32;;;;;;;1.48;0.40;;;20.50;53.70;;;;;;5033251;28;20057;-67
2023/03/06 09:19:58;;;;;;;2.67;0.20;;;20.50;53.60;;;;;;5025073;28;20113;-68
2023/03/06 09:22:23;;;;;;;0.95;0.40;;;20.50;53.60;;;;;;5012668;28;20042;-67
2023/03/06 09:24:49;;;;;;;1.85;0.20;;;20.50;53.50;;;;;;5013733;28;20038;-67
2023/03/06 09:27:15;;;;;;;2.75;0.30;;;20.50;53.50;;;;;;5018777;28;20089;-68
2023/03/06 09:29:40;;;;;;;2.38;0.20;;;20.50;53.40;;;;;;5016047;28;20053;-67
2023/03/06 09:32:06;;;;;;;0.90;0.20;;;20.50;53.40;;;;;;5016321;28;20038;-67
2023/03/06 09:34:32;;;;;;;0.90;0.20;;;20.60;53.40;;;;;;5013393;28;20596;-68
2023/03/06 09:36:58;;;;;;;0.73;0.20;;;20.50;53.40;;;;;;5030773;28;20045;-68
2023/03/06 09:39:24;;;;;;;2.15;0.30;;;20.50;53.40;;;;;;5033425;28;20130;-68
2023/03/06 09:41:50;;;;;;;1.17;0.38;;;20.50;53.30;;;;;;5032229;28;20493;-67
2023/03/06 09:44:27;;;;;;;2.35;0.30;;;20.50;53.30;;;;;;5032764;28;20164;-68
2023/03/06 09:47:32;;;;;;;2.92;0.32;;;20.50;53.30;;;;;;5032786;28;20038;-68
2023/03/06 09:49:59;;;;;;;2.38;0.20;;;20.50;53.30;;;;;;5009796;28;20061;-68
2023/03/06 09:52:50;;;;;;;3.90;0.40;;;20.50;53.30;;;;;;5031542;28;20397;-68
2023/03/06 09:55:17;;;;;;;2.28;0.30;;;20.50;53.30;;;;;;5033598;28;20405;-69
2023/03/06 09:58:03;;;;;;;3.30;0.30;;;20.50;53.40;;;;;;5031210;28;20060;-69
2023/03/06 10:00:40;;;;;;;2.08;0.20;;;20.50;53.40;;;;;;5032210;28;20795;-68
2023/03/06 10:03:13;;;;;;;3.15;0.30;;;20.50;53.40;;;;;;5015854;28;20068;-67
2023/03/06 10:05:46;;;;;;;1.98;0.30;;;20.50;53.40;;;;;;5032110;28;20033;-68
2023/03/06 10:08:38;;;;;;;1.55;0.20;;;20.50;53.50;;;;;;5035935;28;20056;-69
2023/03/06 10:11:08;;;;;;;0.52;0.10;;;20.50;53.50;;;;;;5041279;28;20059;-69
2023/03/06 10:13:42;;;;;;;1.20;0.20;;;20.40;53.50;;;;;;5015202;28;20052;-68
2023/03/06 10:16:30;;;;;;;1.48;0.20;;;20.40;53.50;;;;;;5016318;28;20057;-68
2023/03/06 10:19:01;;;;;;;1.55;0.20;;;20.40;53.50;;;;;;5015026;28;20068;-67
2023/03/06 10:21:51;;;;;;;3.22;0.28;;;20.40;53.70;;;;;;5032893;28;20148;-68
2023/03/06 10:24:29;;;;;;;0.55;0.10;;;20.40;53.60;;;;;;5031532;28;20128;-68
2023/03/06 10:27:17;;;;;;;0.75;0.20;;;20.40;53.70;;;;;;5032831;28;20046;-68
2023/03/06 10:30:23;;;;;;;1.70;0.10;;;20.30;53.70;;;;;;5031065;28;20085;-68
2023/03/06 10:33:08;;;;;;;0.88;0.30;;;20.30;53.70;;;;;;5011981;28;20050;-68
2023/03/06 10:35:47;;;;;;;0.60;0.20;;;20.30;53.60;;;;;;5013373;28;20050;-68
2023/03/06 10:38:26;;;;;;;1.02;0.20;;;20.30;53.60;;;;;;5032655;28;20051;-68
2023/03/06 10:41:10;;;;;;;0.80;0.20;;;20.30;53.60;;;;;;5031835;28;20520;-68
2023/03/06 10:43:44;;;;;;;1.52;0.20;;;20.30;53.50;;;;;;5032380;28;20133;-68
2023/03/06 10:46:11;;;;;;;1.50;0.30;;;20.30;53.50;;;;;;4994138;28;20048;-68
2023/03/06 10:48:38;;;;;;;1.52;0.25;;;20.20;53.60;;;;;;4995665;28;20046;-68
2023/03/06 10:51:18;;;;;;;0.88;0.20;;;20.20;53.50;;;;;;5016401;28;20497;-68
2023/03/06 10:53:59;;;;;;;1.20;0.20;;;20.20;53.40;;;;;;5030617;28;20053;-68
2023/03/06 10:56:36;;;;;;;0.98;0.30;;;20.20;53.40;;;;;;5031203;28;20100;-67
2023/03/06 10:59:18;;;;;;;1.10;0.20;;;20.20;53.40;;;;;;5031762;28;20457;-68
2023/03/06 11:01:48;;;;;;;0.35;0.17;;;20.20;53.30;;;;;;5031956;28;20045;-67
2023/03/06 11:04:26;;;;;;;0.15;0.15;;;20.10;53.30;;;;;;5032436;28;20052;-67
2023/03/06 11:07:17;;;;;;;2.60;0.20;;;20.20;53.40;;;;;;5032582;28;20053;-68
2023/03/06 11:09:46;;;;;;;0.95;0.25;;;20.10;53.20;;;;;;5031264;28;20519;-69
2023/03/06 11:12:31;;;;;;;1.67;0.30;;;20.10;53.30;;;;;;5032638;28;20413;-70
2023/03/06 11:15:06;;;;;;;1.90;0.20;;;20.10;53.40;;;;;;5032042;28;20046;-71
2023/03/06 11:17:33;;;;;;;1.30;0.40;;;20.10;53.50;;;;;;5030712;28;20054;-68
2023/03/06 11:20:13;;;;;;;2.50;0.20;;;20.10;53.50;;;;;;5031791;28;20052;-69
2023/03/06 11:22:39;;;;;;;0.82;0.40;;;20.10;53.60;;;;;;5030903;28;20097;-67
2023/03/06 11:25:05;;;;;;;1.85;0.20;;;20.10;53.70;;;;;;5030751;28;20045;-69
2023/03/06 11:27:33;;;;;;;1.10;0.20;;;20.10;53.80;;;;;;5029480;28;20058;-68
2023/03/06 11:30:04;;;;;;;1.05;0.20;;;20.10;53.90;;;;;;5030650;28;20048;-69
2023/03/06 11:32:37;;;;;;;2.63;0.40;;;20.10;54.70;;;;;;5031576;28;20064;-69
2023/03/06 11:35:09;;;;;;;0.65;0.20;;;20.10;54.10;;;;;;5030508;28;20562;-69
2023/03/06 11:37:56;;;;;;;1.67;0.22;;;20.10;54.10;;;;;;5013691;28;20088;-68
2023/03/06 11:40:50;;;;;;;1.83;0.20;;;20.10;54.10;;;;;;5031983;28;20050;-69
2023/03/06 11:43:24;;;;;;;1.02;0.10;;;20.10;54.20;;;;;;5030893;28;20053;-68
2023/03/06 11:46:06;;;;;;;1.33;0.20;;;20.10;54.20;;;;;;5031284;28;20065;-71
2023/03/06 11:48:45;;;;;;;0.25;0.10;;;20.10;55.00;;;;;;5029756;28;20400;-70
2023/03/06 11:51:16;;;;;;;2.28;0.30;;;20.10;54.30;;;;;;5030733;28;20052;-70
2023/03/06 11:53:41;;;;;;;1.40;0.20;;;20.00;54.10;;;;;;5030722;28;20045;-70
2023/03/06 11:56:13;;;;;;;0.47;0.20;;;20.00;54.10;;;;;;5030111;28;20055;-70
2023/03/06 11:59:00;;;;;;;2.42;0.50;;;20.00;54.10;;;;;;5031593;28;20124;-70
2023/03/06 12:01:44;;;;;;;0.77;0.20;;;20.10;54.20;;;;;;5030618;28;20049;-70
2023/03/06 12:04:27;;;;;;;1.50;0.20;;;20.00;54.20;;;;;;5034131;28;20033;-70
2023/03/06 12:07:18;;;;;;;1.27;0.20;;;20.10;54.20;;;;;;5054376;28;20052;-70
2023/03/06 12:10:04;;;;;;;2.95;0.30;;;20.00;54.20;;;;;;5053350;28;20045;-71
2023/03/06 12:12:41;;;;;;;2.58;0.20;;;20.00;54.30;;;;;;5035839;28;20080;-71
2023/03/06 12:15:14;;;;;;;1.40;0.20;;;20.00;54.30;;;;;;5033238;28;20037;-70
2023/03/06 12:17:54;;;;;;;3.08;0.63;;;20.00;54.40;;;;;;5029099;28;20052;-72
2023/03/06 12:20:41;;;;;;;4.97;0.30;;;20.00;54.50;;;;;;5033246;28;20034;-71
2023/03/06 12:23:31;;;;;;;0.43;0.20;;;20.00;54.50;;;;;;5032924;28;20048;-74
2023/03/06 12:26:18;;;;;;;3.47;0.20;;;20.00;54.50;;;;;;5033119;28;20041;-74
2023/03/06 12:29:16;;;;;;;1.30;0.22;;;20.00;54.50;;;;;;5033460;28;20041;-72
2023/03/06 12:31:47;;;;;;;;;;;20.00;54.60;;;;;;5019343;28;20487;-75
2023/03/06 12:34:15;;;;;;;1.35;0.20;;;20.00;54.60;;;;;;5035637;28;19959;-67
2023/03/06 12:36:53;;;;;;;0.93;0.10;;;20.00;54.50;;;;;;5034645;28;20048;-68
2023/03/06 12:39:44;;;;;;;1.08;0.20;;;20.00;54.60;;;;;;5034185;28;20412;-69
2023/03/06 12:42:28;;;;;;;1.10;0.20;;;20.10;54.80;;;;;;5019613;28;20520;-69
2023/03/06 12:44:59;;;;;;;0.75;0.20;;;20.10;54.80;;;;;;5018086;28;20092;-69
2023/03/06 12:47:26;;;;;;;2.15;0.20;;;20.10;54.80;;;;;;5033055;28;20042;-68
2023/03/06 12:50:00;;;;;;;1.25;0.20;;;20.10;54.80;;;;;;5033846;28;20045;-70
2023/03/06 12:52:28;;;;;;;0.63;0.20;;;20.10;54.80;;;;;;5032943;28;20037;-68
2023/03/06 12:54:54;;;;;;;1.35;0.30;;;20.20;54.90;;;;;;5017416;28;20095;-69
2023/03/06 12:57:21;;;;;;;1.63;0.30;;;20.20;55.50;;;;;;5033294;28;20041;-70